In Rescue
 
Open Full Screen Window  High Contrast Mode
February 23, 2019 8:57 PM PST
Weather Information
Wind Direction
  ---
Wind Speed
  00 kt (0 mph)
Wind Gust
  00 kt (0 mph)
Altimeter
30.27 in
Visibility
10 SM
Temperature
10° C
50° F
Dewpoint
-01° C
30° F
Humidity
47%
1hr Rain Fall
00.00 in.
24hr Rain Fall
00.00 in.
Sky Condition
Clear
VFR

METAR KSBD 240457Z AUTO 00000KT 10SM CLR 10/M01 A3027 RMK AO2 T00971008

FAA Disclaimer: The data displayed is for advisory purposes only and is not to be used for flight planning or operations.